createdAt,value
2019-03-06T00:00:31.764Z,4.04
2019-03-06T00:01:31.779Z,4.10
2019-03-06T00:02:31.737Z,4.02
2019-03-06T00:03:31.774Z,4.17
2019-03-06T00:04:31.715Z,4.06
2019-03-06T00:05:31.705Z,4.17
2019-03-06T00:06:31.698Z,4.02
2019-03-06T00:07:31.679Z,4.10
2019-03-06T00:08:31.671Z,4.01
2019-03-06T00:09:31.695Z,4.02
2019-03-06T00:10:31.655Z,4.05
2019-03-06T00:11:31.638Z,4.01
2019-03-06T00:12:31.631Z,3.96
2019-03-06T00:13:31.614Z,4.04
2019-03-06T00:14:31.625Z,4.05
2019-03-06T00:15:31.641Z,4.02
2019-03-06T00:16:31.583Z,4.08
2019-03-06T00:17:31.580Z,4.22
2019-03-06T00:18:31.578Z,4.13
2019-03-06T00:19:31.553Z,4.20
2019-03-06T00:20:31.541Z,4.16
2019-03-06T00:21:31.625Z,4.28
2019-03-06T00:22:31.521Z,4.19
2019-03-06T00:23:31.545Z,4.34
2019-03-06T00:24:31.523Z,4.35
2019-03-06T00:25:31.482Z,4.32
2019-03-06T00:26:31.500Z,4.38
2019-03-06T00:27:31.459Z,4.37
2019-03-06T00:28:31.484Z,4.17
2019-03-06T00:29:31.441Z,4.31
2019-03-06T00:30:31.460Z,4.28
2019-03-06T00:31:31.417Z,4.17
2019-03-06T00:32:31.407Z,4.12
2019-03-06T00:33:31.396Z,4.04
2019-03-06T00:34:31.424Z,3.99
2019-03-06T00:35:31.393Z,4.04
2019-03-06T00:36:31.372Z,3.92
2019-03-06T00:37:31.358Z,3.96
2019-03-06T00:38:31.345Z,3.86
2019-03-06T00:39:31.362Z,3.87
2019-03-06T00:40:31.322Z,3.77
2019-03-06T00:41:31.338Z,3.76
2019-03-06T00:42:31.294Z,3.87
2019-03-06T00:43:31.287Z,3.86
2019-03-06T00:44:31.270Z,3.84
2019-03-06T00:45:31.266Z,3.83
2019-03-06T00:46:31.281Z,3.76
2019-03-06T00:47:31.241Z,3.83
2019-03-06T00:48:31.227Z,3.77
2019-03-06T00:49:31.218Z,3.77
2019-03-06T00:50:31.531Z,3.87
2019-03-06T00:51:31.250Z,3.81
2019-03-06T00:52:31.183Z,3.92
2019-03-06T00:53:31.172Z,3.99
2019-03-06T00:54:31.161Z,4.14
2019-03-06T00:55:31.150Z,4.12
2019-03-06T00:56:31.140Z,4.19
2019-03-06T00:57:31.168Z,4.17
2019-03-06T00:58:31.118Z,4.22
2019-03-06T00:59:31.260Z,4.19
2019-03-06T01:00:31.115Z,4.19
2019-03-06T01:01:31.084Z,4.19
2019-03-06T01:02:31.074Z,4.14
2019-03-06T01:03:31.099Z,4.14
2019-03-06T01:04:31.050Z,4.13
2019-03-06T01:05:31.047Z,4.10
2019-03-06T01:06:31.030Z,4.08
2019-03-06T01:07:31.016Z,4.10
2019-03-06T01:08:31.008Z,4.08
2019-03-06T01:09:31.036Z,4.16
2019-03-06T01:10:30.986Z,4.17
2019-03-06T01:11:30.977Z,4.19
2019-03-06T01:12:30.968Z,4.10
2019-03-06T01:13:30.974Z,4.13
2019-03-06T01:14:30.941Z,4.26
2019-03-06T01:15:30.966Z,4.23
2019-03-06T01:16:30.918Z,4.26
2019-03-06T01:17:30.906Z,4.23
2019-03-06T01:18:30.910Z,4.26
2019-03-06T01:19:30.894Z,4.17
2019-03-06T01:20:30.878Z,4.19
2019-03-06T01:21:31.028Z,4.13
2019-03-06T01:22:30.864Z,4.16
2019-03-06T01:23:30.862Z,4.08
2019-03-06T01:24:30.827Z,4.14
2019-03-06T01:25:30.821Z,4.13
2019-03-06T01:26:30.807Z,4.17
2019-03-06T01:27:30.835Z,4.13
2019-03-06T01:28:30.787Z,4.01
2019-03-06T01:29:30.783Z,4.05
2019-03-06T01:30:30.763Z,4.04
2019-03-06T01:31:30.758Z,4.01
2019-03-06T01:32:30.781Z,4.02
2019-03-06T01:33:30.731Z,4.04
2019-03-06T01:34:30.720Z,4.04
2019-03-06T01:35:30.725Z,3.94
2019-03-06T01:36:30.741Z,3.94
2019-03-06T01:37:30.740Z,3.94
2019-03-06T01:38:30.673Z,3.99
2019-03-06T01:39:30.664Z,3.84
2019-03-06T01:40:30.658Z,3.84
2019-03-06T01:41:30.655Z,3.87
2019-03-06T01:42:30.670Z,3.84
2019-03-06T01:43:30.626Z,3.84
2019-03-06T01:44:30.613Z,3.81
2019-03-06T01:45:30.597Z,3.78
2019-03-06T01:46:30.625Z,3.73
2019-03-06T01:47:30.609Z,3.78
2019-03-06T01:48:30.564Z,3.74
2019-03-06T01:49:30.611Z,3.91
2019-03-06T01:50:30.541Z,3.81
2019-03-06T01:51:30.532Z,3.80
2019-03-06T01:52:30.523Z,3.80
2019-03-06T01:53:30.540Z,3.81
2019-03-06T01:54:30.540Z,3.78
2019-03-06T01:55:30.487Z,3.69
2019-03-06T01:56:30.476Z,3.70
2019-03-06T01:57:30.466Z,3.77
2019-03-06T01:58:30.509Z,3.76
2019-03-06T01:59:30.463Z,3.70
2019-03-06T02:00:30.470Z,3.74
2019-03-06T02:01:30.422Z,3.74
2019-03-06T02:02:30.407Z,3.77
2019-03-06T02:03:30.402Z,3.74
2019-03-06T02:04:30.386Z,3.70
2019-03-06T02:05:30.379Z,3.76
2019-03-06T02:06:30.398Z,3.69
2019-03-06T02:07:30.357Z,3.69
2019-03-06T02:08:30.346Z,3.65
2019-03-06T02:09:30.333Z,3.63
2019-03-06T02:10:30.319Z,3.62
2019-03-06T02:11:30.322Z,3.53
2019-03-06T02:12:30.337Z,3.53
2019-03-06T02:13:30.287Z,3.48
2019-03-06T02:14:30.279Z,3.51
2019-03-06T02:15:30.263Z,3.45
2019-03-06T02:16:30.259Z,3.48
2019-03-06T02:17:30.241Z,3.45
2019-03-06T02:18:30.264Z,3.41
2019-03-06T02:19:30.222Z,3.40
2019-03-06T02:20:30.214Z,3.41
2019-03-06T02:21:30.203Z,3.44
2019-03-06T02:22:30.187Z,3.36
2019-03-06T02:23:30.182Z,3.40
2019-03-06T02:24:30.200Z,3.29
2019-03-06T02:25:30.150Z,3.25
2019-03-06T02:26:30.142Z,3.31
2019-03-06T02:27:45.124Z,3.37
2019-03-06T02:28:30.119Z,3.28
2019-03-06T02:29:30.156Z,3.26
2019-03-06T02:30:30.101Z,3.26
2019-03-06T02:31:30.123Z,3.26
2019-03-06T02:32:30.073Z,3.23
2019-03-06T02:33:30.061Z,3.21
2019-03-06T02:34:30.053Z,3.29
2019-03-06T02:35:30.043Z,3.32
2019-03-06T02:36:30.032Z,3.31
2019-03-06T02:37:30.063Z,3.23
2019-03-06T02:38:30.006Z,3.19
2019-03-06T02:39:30.042Z,3.29
2019-03-06T02:40:30.004Z,3.31
2019-03-06T02:41:29.988Z,3.25
2019-03-06T02:42:29.970Z,3.14
2019-03-06T02:43:29.969Z,3.14
2019-03-06T02:44:30.172Z,3.10
2019-03-06T02:45:29.932Z,3.13
2019-03-06T02:46:29.919Z,3.11
2019-03-06T02:47:29.928Z,3.19
2019-03-06T02:48:29.912Z,3.08
2019-03-06T02:49:29.930Z,3.10
2019-03-06T02:50:29.877Z,3.04
2019-03-06T02:51:29.868Z,3.07
2019-03-06T02:52:29.855Z,2.95
2019-03-06T02:53:29.849Z,3.00
2019-03-06T02:54:29.835Z,3.03
2019-03-06T02:55:29.865Z,3.10
2019-03-06T02:56:29.807Z,3.10
2019-03-06T02:57:29.804Z,3.04
2019-03-06T02:58:29.820Z,2.97
2019-03-06T02:59:29.779Z,3.00
2019-03-06T03:00:29.763Z,3.01
2019-03-06T03:01:29.791Z,3.05
2019-03-06T03:02:29.747Z,2.98
2019-03-06T03:03:29.736Z,2.93
2019-03-06T03:04:29.722Z,2.95
2019-03-06T03:05:29.708Z,2.89
2019-03-06T03:06:29.739Z,2.89
2019-03-06T03:07:29.813Z,2.86
2019-03-06T03:08:29.676Z,2.93
2019-03-06T03:09:29.679Z,2.86
2019-03-06T03:10:29.656Z,2.85
2019-03-06T03:11:29.659Z,2.90
2019-03-06T03:12:29.746Z,2.89
2019-03-06T03:13:29.620Z,2.82
2019-03-06T03:14:29.613Z,2.82
2019-03-06T03:15:29.604Z,2.80
2019-03-06T03:16:29.594Z,2.87
2019-03-06T03:17:29.634Z,2.77
2019-03-06T03:18:29.575Z,2.80
2019-03-06T03:19:29.557Z,2.82
2019-03-06T03:20:29.548Z,2.72
2019-03-06T03:21:29.558Z,2.69
2019-03-06T03:22:29.528Z,2.68
2019-03-06T03:23:29.569Z,2.65
2019-03-06T03:24:29.504Z,2.85
2019-03-06T03:25:29.490Z,2.92
2019-03-06T03:26:29.481Z,2.86
2019-03-06T03:27:29.486Z,2.89
2019-03-06T03:28:29.463Z,3.00
2019-03-06T03:29:29.481Z,3.00
2019-03-06T03:30:29.449Z,3.00
2019-03-06T03:31:29.461Z,3.10
2019-03-06T03:32:29.421Z,2.98
2019-03-06T03:33:29.421Z,3.10
2019-03-06T03:34:29.413Z,3.11
2019-03-06T03:35:29.384Z,3.16
2019-03-06T03:36:29.378Z,3.14
2019-03-06T03:37:29.674Z,3.13
2019-03-06T03:38:29.373Z,3.11
2019-03-06T03:39:29.380Z,3.11
2019-03-06T03:40:29.334Z,3.05
2019-03-06T03:41:29.318Z,3.07
2019-03-06T03:42:29.312Z,3.13
2019-03-06T03:43:29.310Z,3.13
2019-03-06T03:44:29.320Z,3.11
2019-03-06T03:45:29.312Z,3.10
2019-03-06T03:46:29.266Z,3.10
2019-03-06T03:47:29.271Z,3.07
2019-03-06T03:48:29.246Z,3.11
2019-03-06T03:49:29.232Z,3.16
2019-03-06T03:50:29.262Z,3.21
2019-03-06T03:51:29.217Z,3.22
2019-03-06T03:52:29.209Z,3.22
2019-03-06T03:53:29.191Z,3.22
2019-03-06T03:54:29.189Z,3.26
2019-03-06T03:55:29.176Z,3.25
2019-03-06T03:56:29.195Z,3.10
2019-03-06T03:57:29.170Z,3.14
2019-03-06T03:58:29.136Z,3.31
2019-03-06T03:59:29.126Z,3.18
2019-03-06T04:00:29.129Z,3.05
2019-03-06T04:01:29.146Z,3.18
2019-03-06T04:02:29.098Z,3.14
2019-03-06T04:03:29.097Z,3.16
2019-03-06T04:04:29.075Z,3.10
2019-03-06T04:05:29.064Z,3.03
2019-03-06T04:06:29.093Z,3.04
2019-03-06T04:07:29.078Z,3.03
2019-03-06T04:08:29.066Z,2.92
2019-03-06T04:09:29.028Z,2.93
2019-03-06T04:10:29.043Z,2.86
2019-03-06T04:11:29.004Z,2.92
2019-03-06T04:12:28.995Z,2.87
2019-03-06T04:13:29.016Z,2.83
2019-03-06T04:14:29.015Z,2.90
2019-03-06T04:15:28.973Z,2.83
2019-03-06T04:16:29.034Z,2.86
2019-03-06T04:17:28.935Z,2.85
2019-03-06T04:18:28.924Z,2.80
2019-03-06T04:19:28.946Z,2.79
2019-03-06T04:20:28.919Z,2.85
2019-03-06T04:21:28.899Z,2.64
2019-03-06T04:22:28.885Z,2.67
2019-03-06T04:23:28.869Z,2.68
2019-03-06T04:24:28.862Z,2.60
2019-03-06T04:25:28.885Z,2.57
2019-03-06T04:26:28.886Z,2.65
2019-03-06T04:27:28.827Z,2.68
2019-03-06T04:28:28.826Z,2.64
2019-03-06T04:29:28.805Z,2.62
2019-03-06T04:30:28.853Z,2.64
2019-03-06T04:31:28.819Z,2.56
2019-03-06T04:32:28.779Z,2.51
2019-03-06T04:33:28.794Z,2.50
2019-03-06T04:34:28.749Z,2.53
2019-03-06T04:35:28.746Z,2.51
2019-03-06T04:36:28.744Z,2.53
2019-03-06T04:37:28.757Z,2.46
2019-03-06T04:38:28.806Z,2.44
2019-03-06T04:39:28.715Z,2.47
2019-03-06T04:40:28.690Z,2.33
2019-03-06T04:41:28.677Z,2.39
2019-03-06T04:42:28.667Z,2.35
2019-03-06T04:43:28.686Z,2.31
2019-03-06T04:44:28.730Z,2.31
2019-03-06T04:45:28.635Z,2.35
2019-03-06T04:46:28.624Z,2.29
2019-03-06T04:47:28.650Z,2.35
2019-03-06T04:48:28.596Z,2.35
2019-03-06T04:49:28.592Z,2.22
2019-03-06T04:50:28.579Z,2.22
2019-03-06T04:51:28.567Z,2.20
2019-03-06T04:52:28.556Z,2.22
2019-03-06T04:53:28.589Z,2.22
2019-03-06T04:54:28.535Z,2.25
2019-03-06T04:55:28.531Z,2.22
2019-03-06T04:56:28.551Z,2.17
2019-03-06T04:57:28.505Z,2.20
2019-03-06T04:58:28.538Z,2.17
2019-03-06T04:59:28.482Z,2.15
2019-03-06T05:00:28.467Z,2.26
2019-03-06T05:01:28.466Z,2.18
2019-03-06T05:02:28.477Z,2.22
2019-03-06T05:03:28.437Z,2.28
2019-03-06T05:04:28.466Z,2.26
2019-03-06T05:05:28.419Z,2.18
2019-03-06T05:06:28.429Z,2.25
2019-03-06T05:07:28.424Z,2.20
2019-03-06T05:08:28.384Z,2.18
2019-03-06T05:09:28.379Z,2.24
2019-03-06T05:10:28.398Z,2.13
2019-03-06T05:11:28.388Z,2.13
2019-03-06T05:12:28.350Z,2.13
2019-03-06T05:13:28.332Z,2.10
2019-03-06T05:14:28.319Z,2.22
2019-03-06T05:15:28.313Z,2.18
2019-03-06T05:16:28.366Z,2.14
2019-03-06T05:17:28.298Z,2.22
2019-03-06T05:18:28.288Z,2.18
2019-03-06T05:19:28.291Z,2.17
2019-03-06T05:20:28.254Z,2.07
2019-03-06T05:21:28.282Z,2.06
2019-03-06T05:22:28.238Z,2.07
2019-03-06T05:23:28.225Z,2.08
2019-03-06T05:24:28.215Z,2.07
2019-03-06T05:25:28.198Z,2.00
2019-03-06T05:26:28.188Z,2.02
2019-03-06T05:27:28.233Z,2.04
2019-03-06T05:28:28.172Z,1.95
2019-03-06T05:29:28.156Z,1.89
2019-03-06T05:30:28.150Z,1.89
2019-03-06T05:31:28.135Z,1.92
2019-03-06T05:32:28.184Z,1.88
2019-03-06T05:33:28.804Z,1.91
2019-03-06T05:34:28.158Z,1.97
2019-03-06T05:35:28.093Z,1.85
2019-03-06T05:36:28.083Z,1.84
2019-03-06T05:37:28.068Z,1.89
2019-03-06T05:38:28.060Z,1.97
2019-03-06T05:39:28.059Z,1.89
2019-03-06T05:40:28.073Z,2.00
2019-03-06T05:41:28.028Z,1.89
2019-03-06T05:42:28.039Z,1.89
2019-03-06T05:43:28.016Z,2.06
2019-03-06T05:44:27.993Z,2.00
2019-03-06T05:45:28.000Z,1.97
2019-03-06T05:46:28.010Z,2.00
2019-03-06T05:47:28.004Z,1.84
2019-03-06T05:48:27.959Z,1.87
2019-03-06T05:49:27.939Z,1.91
2019-03-06T05:50:27.931Z,1.97
2019-03-06T05:51:27.916Z,2.00
2019-03-06T05:52:27.976Z,1.97
2019-03-06T05:53:27.906Z,2.02
2019-03-06T05:54:27.884Z,1.95
2019-03-06T05:55:27.882Z,1.99
2019-03-06T05:56:27.863Z,1.97
2019-03-06T05:57:27.857Z,1.91
2019-03-06T05:58:28.053Z,1.95
2019-03-06T05:59:27.831Z,2.06
2019-03-06T06:00:27.819Z,2.15
2019-03-06T06:01:27.808Z,2.14
2019-03-06T06:02:28.017Z,2.14
2019-03-06T06:03:27.831Z,2.14
2019-03-06T06:04:27.789Z,2.20
2019-03-06T06:05:27.790Z,2.17
2019-03-06T06:06:27.753Z,2.24
2019-03-06T06:07:27.745Z,2.26
2019-03-06T06:08:27.773Z,2.22
2019-03-06T06:09:27.761Z,2.29
2019-03-06T06:10:27.722Z,2.44
2019-03-06T06:11:27.700Z,2.36
2019-03-06T06:12:27.695Z,2.50
2019-03-06T06:13:27.728Z,2.61
2019-03-06T06:14:27.673Z,2.56
2019-03-06T06:15:27.663Z,2.62
2019-03-06T06:16:27.645Z,2.67
2019-03-06T06:17:27.634Z,2.79
2019-03-06T06:18:27.632Z,2.77
2019-03-06T06:19:27.654Z,2.83
2019-03-06T06:20:27.610Z,2.80
2019-03-06T06:21:27.600Z,2.80
2019-03-06T06:22:27.588Z,2.79
2019-03-06T06:23:27.568Z,2.80
2019-03-06T06:24:27.601Z,2.89
2019-03-06T06:25:27.556Z,2.85
2019-03-06T06:26:27.540Z,2.83
2019-03-06T06:27:27.531Z,2.95
2019-03-06T06:28:27.658Z,2.92
2019-03-06T06:29:27.596Z,2.86
2019-03-06T06:30:27.493Z,2.85
2019-03-06T06:31:27.482Z,2.92
2019-03-06T06:32:27.473Z,2.93
2019-03-06T06:33:27.467Z,2.89
2019-03-06T06:34:27.485Z,2.95
2019-03-06T06:35:27.443Z,2.87
2019-03-06T06:36:27.431Z,2.82
2019-03-06T06:37:27.422Z,2.89
2019-03-06T06:38:27.411Z,2.83
2019-03-06T06:39:27.461Z,2.87
2019-03-06T06:40:27.428Z,2.93
2019-03-06T06:41:27.460Z,2.82
2019-03-06T06:42:27.391Z,2.92
2019-03-06T06:43:27.355Z,2.97
2019-03-06T06:44:27.348Z,2.89
2019-03-06T06:45:27.335Z,2.98
2019-03-06T06:46:27.325Z,3.05
2019-03-06T06:47:27.350Z,3.14
2019-03-06T06:48:27.301Z,3.16
2019-03-06T06:49:27.300Z,3.23
2019-03-06T06:50:27.281Z,3.36
2019-03-06T06:51:27.295Z,3.45
2019-03-06T06:52:27.293Z,3.62
2019-03-06T06:53:27.248Z,3.60
2019-03-06T06:54:27.237Z,3.74
2019-03-06T06:55:27.235Z,3.63
2019-03-06T06:56:28.156Z,3.73
2019-03-06T06:57:27.203Z,3.83
2019-03-06T06:58:31.333Z,3.84
2019-03-06T06:59:27.180Z,3.95
2019-03-06T07:00:27.169Z,4.02
2019-03-06T07:01:27.171Z,4.12
2019-03-06T07:02:27.145Z,4.30
2019-03-06T07:03:27.136Z,4.28
2019-03-06T07:04:27.200Z,4.40
2019-03-06T07:05:27.124Z,4.35
2019-03-06T07:06:27.104Z,4.73
2019-03-06T07:07:27.100Z,5.59
2019-03-06T07:08:27.087Z,6.46
2019-03-06T07:09:27.132Z,7.32
2019-03-06T07:10:27.061Z,8.16
2019-03-06T07:11:27.050Z,8.81
2019-03-06T07:12:27.039Z,9.59
2019-03-06T07:13:27.025Z,10.19
2019-03-06T07:14:27.037Z,10.57
2019-03-06T07:15:27.184Z,10.82
2019-03-06T07:16:26.991Z,10.87
2019-03-06T07:17:27.028Z,10.81
2019-03-06T07:18:26.970Z,10.74
2019-03-06T07:19:26.962Z,11.15
2019-03-06T07:20:26.948Z,11.66
2019-03-06T07:21:26.971Z,11.32
2019-03-06T07:22:26.935Z,11.51
2019-03-06T07:23:26.940Z,11.37
2019-03-06T07:24:27.677Z,11.19
2019-03-06T07:25:26.921Z,11.29
2019-03-06T07:26:26.895Z,11.73
2019-03-06T07:27:27.240Z,11.83
2019-03-06T07:28:26.860Z,12.09
2019-03-06T07:29:26.850Z,11.73
2019-03-06T07:30:27.015Z,12.13
2019-03-06T07:31:27.660Z,12.21
2019-03-06T07:32:26.824Z,12.37
2019-03-06T07:33:26.852Z,12.39
2019-03-06T07:34:26.802Z,12.80
2019-03-06T07:35:26.864Z,12.54
2019-03-06T07:36:26.770Z,12.54
2019-03-06T07:37:28.869Z,12.53
2019-03-06T07:38:26.750Z,12.58
2019-03-06T07:39:26.768Z,12.55
2019-03-06T07:40:26.737Z,12.62
2019-03-06T07:41:26.729Z,12.79
2019-03-06T07:42:26.727Z,12.79
2019-03-06T07:43:26.784Z,12.57
2019-03-06T07:44:30.239Z,12.73
2019-03-06T07:45:26.716Z,13.04
2019-03-06T07:46:26.665Z,13.16
2019-03-06T07:47:26.735Z,12.97
2019-03-06T07:48:26.711Z,12.75
2019-03-06T07:49:26.730Z,12.64
2019-03-06T07:50:26.641Z,12.47
2019-03-06T07:51:26.618Z,12.49
2019-03-06T07:52:26.656Z,12.68
2019-03-06T07:53:26.589Z,12.98
2019-03-06T07:54:26.586Z,13.15
2019-03-06T07:55:26.663Z,13.33
2019-03-06T07:56:26.589Z,13.99
2019-03-06T07:57:26.598Z,14.00
2019-03-06T07:58:26.539Z,14.17
2019-03-06T07:59:26.625Z,13.89
2019-03-06T08:00:26.606Z,13.30
2019-03-06T08:01:26.520Z,12.90
2019-03-06T08:02:26.515Z,12.98
2019-03-06T08:03:26.529Z,13.77
2019-03-06T08:04:26.543Z,14.00
2019-03-06T08:05:26.609Z,14.48
2019-03-06T08:06:26.451Z,14.28
2019-03-06T08:07:26.446Z,14.28
2019-03-06T08:08:26.454Z,15.06
2019-03-06T08:09:26.406Z,16.21
2019-03-06T08:10:26.456Z,16.71
2019-03-06T08:11:26.395Z,16.60
2019-03-06T08:12:26.388Z,16.87
2019-03-06T08:13:26.375Z,16.71
2019-03-06T08:14:26.429Z,16.39
2019-03-06T08:15:26.344Z,16.61
2019-03-06T08:16:26.347Z,16.71
2019-03-06T08:17:26.327Z,16.57
2019-03-06T08:18:26.328Z,16.33
2019-03-06T08:19:26.317Z,15.76
2019-03-06T08:20:26.336Z,16.54
2019-03-06T08:21:26.277Z,16.10
2019-03-06T08:22:26.266Z,16.38
2019-03-06T08:23:26.263Z,16.41
2019-03-06T08:24:26.249Z,15.84
2019-03-06T08:25:26.293Z,15.51
2019-03-06T08:26:26.297Z,15.55
2019-03-06T08:27:26.342Z,15.54
2019-03-06T08:28:47.207Z,16.08
2019-03-06T08:29:26.196Z,15.98
2019-03-06T08:30:26.206Z,16.60
2019-03-06T08:31:26.241Z,16.96
2019-03-06T08:32:26.157Z,16.61
2019-03-06T08:33:26.157Z,16.79
2019-03-06T08:34:26.491Z,17.14
2019-03-06T08:35:26.144Z,17.41
2019-03-06T08:36:26.143Z,17.83
2019-03-06T08:37:26.171Z,18.44
2019-03-06T08:38:26.095Z,18.52
2019-03-06T08:39:26.094Z,18.07
2019-03-06T08:40:26.074Z,18.22
2019-03-06T08:41:26.094Z,17.72
2019-03-06T08:42:26.063Z,17.01
2019-03-06T08:43:26.027Z,16.38
2019-03-06T08:44:26.028Z,16.86
2019-03-06T08:45:26.019Z,17.12
2019-03-06T08:46:26.008Z,16.90
2019-03-06T08:47:26.032Z,17.94
2019-03-06T08:48:25.974Z,18.83
2019-03-06T08:49:25.988Z,19.19
2019-03-06T08:50:25.963Z,18.92
2019-03-06T08:51:25.968Z,18.59
2019-03-06T08:52:25.984Z,18.40
2019-03-06T08:53:25.929Z,19.36
2019-03-06T08:54:25.923Z,20.24
2019-03-06T08:55:26.015Z,20.21
2019-03-06T08:56:25.888Z,19.88
2019-03-06T08:57:25.885Z,19.62
2019-03-06T08:58:25.931Z,20.81
2019-03-06T08:59:25.891Z,20.65
2019-03-06T09:00:25.845Z,20.58
2019-03-06T09:01:25.836Z,20.75
2019-03-06T09:02:25.825Z,19.30
2019-03-06T09:03:25.873Z,17.30
2019-03-06T09:04:25.805Z,15.77
2019-03-06T09:05:25.786Z,14.88
2019-03-06T09:06:25.783Z,14.58
2019-03-06T09:07:25.763Z,14.89
2019-03-06T09:08:25.771Z,15.61
2019-03-06T09:09:25.793Z,16.79
2019-03-06T09:10:25.735Z,17.87
2019-03-06T09:11:25.784Z,18.05
2019-03-06T09:12:25.732Z,17.54
2019-03-06T09:13:25.697Z,16.43
2019-03-06T09:14:25.705Z,15.83
2019-03-06T09:15:25.688Z,15.97
2019-03-06T09:16:25.695Z,15.95
2019-03-06T09:17:26.762Z,16.50
2019-03-06T09:18:25.642Z,17.23
2019-03-06T09:19:25.636Z,17.27
2019-03-06T09:20:34.968Z,17.24
2019-03-06T09:21:26.619Z,17.26
2019-03-06T09:22:25.599Z,18.22
2019-03-06T09:23:25.656Z,19.16
2019-03-06T09:24:25.580Z,20.03
2019-03-06T09:25:25.633Z,19.81
2019-03-06T09:26:25.564Z,19.73
2019-03-06T09:27:25.597Z,20.10
2019-03-06T09:28:25.613Z,20.62
2019-03-06T09:29:25.522Z,19.22
2019-03-06T09:30:25.530Z,18.34
2019-03-06T09:31:25.511Z,17.85
2019-03-06T09:32:25.506Z,17.72
2019-03-06T09:33:25.511Z,17.68
2019-03-06T09:34:25.522Z,17.80
2019-03-06T09:35:25.460Z,17.31
2019-03-06T09:36:25.449Z,16.57
2019-03-06T09:37:25.457Z,16.01
2019-03-06T09:38:25.455Z,15.03
2019-03-06T09:39:25.480Z,14.91
2019-03-06T09:40:25.395Z,15.04
2019-03-06T09:41:25.386Z,15.73
2019-03-06T09:42:25.375Z,16.74
2019-03-06T09:43:25.368Z,17.52
2019-03-06T09:44:25.360Z,18.74
2019-03-06T09:45:25.423Z,18.47
2019-03-06T09:46:25.346Z,17.95
2019-03-06T09:47:25.351Z,17.79
2019-03-06T09:48:25.342Z,17.64
2019-03-06T09:49:25.364Z,17.12
2019-03-06T09:50:25.358Z,17.04
2019-03-06T09:51:25.298Z,16.89
2019-03-06T09:52:25.271Z,16.46
2019-03-06T09:53:25.271Z,15.97
2019-03-06T09:54:25.257Z,15.68
2019-03-06T09:55:25.241Z,15.51
2019-03-06T09:56:25.296Z,15.97
2019-03-06T09:57:25.231Z,15.70
2019-03-06T09:58:25.224Z,15.49
2019-03-06T09:59:25.194Z,15.95
2019-03-06T10:00:25.185Z,15.64
2019-03-06T10:01:25.185Z,16.12
2019-03-06T10:02:25.207Z,16.09
2019-03-06T10:03:25.146Z,15.62
2019-03-06T10:04:25.141Z,15.44
2019-03-06T10:05:25.136Z,15.17
2019-03-06T10:06:25.118Z,14.88
2019-03-06T10:07:25.144Z,15.19
2019-03-06T10:08:25.470Z,15.73
2019-03-06T10:09:25.088Z,15.62
2019-03-06T10:10:25.077Z,15.65
2019-03-06T10:11:25.153Z,15.54
2019-03-06T10:12:25.107Z,16.00
2019-03-06T10:13:25.059Z,16.57
2019-03-06T10:14:25.042Z,16.72
2019-03-06T10:15:25.021Z,16.78
2019-03-06T10:16:25.052Z,17.15
2019-03-06T10:17:25.002Z,17.54
2019-03-06T10:18:26.821Z,17.74
2019-03-06T10:19:24.970Z,18.20
2019-03-06T10:20:25.550Z,18.26
2019-03-06T10:21:25.745Z,18.38
2019-03-06T10:22:24.933Z,18.43
2019-03-06T10:23:24.937Z,18.95
2019-03-06T10:24:24.965Z,18.96
2019-03-06T10:25:30.067Z,18.49
2019-03-06T10:26:25.892Z,18.63
2019-03-06T10:27:24.875Z,19.04
2019-03-06T10:28:28.018Z,18.96
2019-03-06T10:29:24.917Z,18.96
2019-03-06T10:30:24.853Z,18.99
2019-03-06T10:31:24.861Z,20.14
2019-03-06T10:32:24.854Z,20.18
2019-03-06T10:33:24.820Z,19.84
2019-03-06T10:34:24.879Z,20.13
2019-03-06T10:35:24.818Z,19.85
2019-03-06T10:36:24.786Z,18.96
2019-03-06T10:37:24.789Z,17.68
2019-03-06T10:38:24.757Z,17.01
2019-03-06T10:39:24.750Z,17.72
2019-03-06T10:40:24.822Z,18.50
2019-03-06T10:41:24.745Z,18.99
2019-03-06T10:42:24.734Z,18.75
2019-03-06T10:43:24.719Z,18.19
2019-03-06T10:44:29.492Z,18.03
2019-03-06T10:45:25.734Z,18.37
2019-03-06T10:46:24.670Z,17.83
2019-03-06T10:47:24.678Z,18.10
2019-03-06T10:48:24.658Z,18.38
2019-03-06T10:49:24.637Z,18.47
2019-03-06T10:50:26.925Z,18.86
2019-03-06T10:51:25.747Z,17.92
2019-03-06T10:52:24.650Z,18.13
2019-03-06T10:53:24.605Z,18.63
2019-03-06T10:54:24.596Z,18.40
2019-03-06T10:55:24.573Z,18.95
2019-03-06T10:56:24.647Z,19.31
2019-03-06T10:57:24.564Z,19.22
2019-03-06T10:58:24.546Z,19.58
2019-03-06T10:59:27.233Z,18.05
2019-03-06T11:00:24.537Z,17.29
2019-03-06T11:01:24.543Z,17.23
2019-03-06T11:02:24.568Z,17.02
2019-03-06T11:03:24.510Z,17.70
2019-03-06T11:04:24.527Z,17.83
2019-03-06T11:05:24.468Z,18.63
2019-03-06T11:06:24.473Z,18.23
2019-03-06T11:07:24.543Z,17.23
2019-03-06T11:08:25.066Z,17.14
2019-03-06T11:09:24.422Z,17.39
2019-03-06T11:10:25.226Z,17.60
2019-03-06T11:11:24.402Z,17.36
2019-03-06T11:12:24.445Z,17.49
2019-03-06T11:13:24.397Z,17.67
2019-03-06T11:14:24.374Z,16.84
2019-03-06T11:15:24.358Z,16.97
2019-03-06T11:16:24.343Z,17.38
2019-03-06T11:17:24.332Z,17.41
2019-03-06T11:18:24.376Z,16.74
2019-03-06T11:19:24.330Z,16.41
2019-03-06T11:20:24.311Z,16.16
2019-03-06T11:21:24.311Z,16.31
2019-03-06T11:22:24.302Z,16.56
2019-03-06T11:23:25.000Z,16.68
2019-03-06T11:24:24.330Z,16.12
2019-03-06T11:25:24.236Z,15.19
2019-03-06T11:26:24.241Z,15.17
2019-03-06T11:27:24.224Z,15.82
2019-03-06T11:28:24.221Z,16.64
2019-03-06T11:29:24.207Z,16.96
2019-03-06T11:30:24.309Z,15.92
2019-03-06T11:31:24.178Z,14.47
2019-03-06T11:32:24.175Z,14.59
2019-03-06T11:33:24.182Z,15.21
2019-03-06T11:34:24.142Z,15.54
2019-03-06T11:35:24.147Z,15.02
2019-03-06T11:36:24.197Z,14.59
2019-03-06T11:37:24.106Z,14.14
2019-03-06T11:38:24.119Z,14.26
2019-03-06T11:39:24.087Z,14.63
2019-03-06T11:40:24.069Z,14.54
2019-03-06T11:41:24.143Z,14.41
2019-03-06T11:42:24.063Z,14.23
2019-03-06T11:43:24.059Z,13.67
2019-03-06T11:44:24.046Z,13.39
2019-03-06T11:45:24.046Z,13.56
2019-03-06T11:46:24.051Z,13.68
2019-03-06T11:47:24.079Z,13.96
2019-03-06T11:48:23.986Z,14.63
2019-03-06T11:49:23.981Z,14.97
2019-03-06T11:50:24.025Z,14.78
2019-03-06T11:51:23.953Z,15.03
2019-03-06T11:52:24.011Z,14.91
2019-03-06T11:53:23.932Z,15.11
2019-03-06T11:54:23.923Z,15.33
2019-03-06T11:55:23.909Z,14.84
2019-03-06T11:56:23.971Z,14.85
2019-03-06T11:57:23.901Z,15.27
2019-03-06T11:58:23.938Z,14.60
2019-03-06T11:59:23.883Z,14.60
2019-03-06T12:00:23.863Z,14.51
2019-03-06T12:01:23.868Z,14.17
2019-03-06T12:02:23.825Z,14.30
2019-03-06T12:03:23.816Z,13.97
2019-03-06T12:04:23.864Z,13.95
2019-03-06T12:05:23.799Z,13.49
2019-03-06T12:06:23.894Z,13.65
2019-03-06T12:07:23.784Z,13.93
2019-03-06T12:08:23.766Z,14.26
2019-03-06T12:09:23.875Z,14.68
2019-03-06T12:10:23.757Z,15.28
2019-03-06T12:11:23.729Z,15.94
2019-03-06T12:12:23.743Z,16.09
2019-03-06T12:13:23.734Z,16.16
2019-03-06T12:14:23.718Z,16.68
2019-03-06T12:15:23.749Z,16.87
2019-03-06T12:16:23.682Z,17.14
2019-03-06T12:17:23.676Z,17.72
2019-03-06T12:18:23.657Z,18.18
2019-03-06T12:19:23.652Z,17.95
2019-03-06T12:20:23.646Z,18.08
2019-03-06T12:21:23.678Z,18.22
2019-03-06T12:22:23.612Z,18.20
2019-03-06T12:23:23.607Z,18.37
2019-03-06T12:24:23.587Z,18.25
2019-03-06T12:25:23.639Z,18.50
2019-03-06T12:26:23.578Z,18.65
2019-03-06T12:27:23.612Z,19.00
2019-03-06T12:28:23.558Z,18.40
2019-03-06T12:29:23.559Z,17.14
2019-03-06T12:30:23.517Z,17.01
2019-03-06T12:31:23.584Z,16.43
2019-03-06T12:32:23.522Z,16.12
2019-03-06T12:33:23.494Z,15.67
2019-03-06T12:34:23.483Z,15.52
2019-03-06T12:35:23.517Z,15.14
2019-03-06T12:36:23.838Z,14.44
2019-03-06T12:37:23.509Z,14.37
2019-03-06T12:38:23.448Z,14.45
2019-03-06T12:39:23.424Z,14.33
2019-03-06T12:40:23.405Z,14.45
2019-03-06T12:41:23.432Z,15.03
2019-03-06T12:42:23.395Z,15.51
2019-03-06T12:43:23.479Z,15.51
2019-03-06T12:44:23.381Z,15.52
2019-03-06T12:45:23.353Z,15.27
2019-03-06T12:46:24.349Z,15.37
2019-03-06T12:47:23.334Z,15.94
2019-03-06T12:48:23.361Z,16.09
2019-03-06T12:49:23.357Z,15.57
2019-03-06T12:50:23.310Z,15.51
2019-03-06T12:51:23.280Z,15.52
2019-03-06T12:52:23.280Z,15.39
2019-03-06T12:53:23.276Z,14.60
2019-03-06T12:54:23.309Z,14.29
2019-03-06T12:55:23.335Z,14.51
2019-03-06T12:56:23.236Z,14.45
2019-03-06T12:57:23.257Z,14.65
2019-03-06T12:58:23.209Z,15.27
2019-03-06T12:59:23.203Z,15.97
2019-03-06T13:00:23.200Z,16.54
2019-03-06T13:01:23.211Z,17.34
2019-03-06T13:02:23.155Z,17.85
2019-03-06T13:03:23.150Z,18.43
2019-03-06T13:04:23.151Z,18.41
2019-03-06T13:05:23.149Z,18.49
2019-03-06T13:06:24.821Z,18.65